Time;durP1;ratioP1;P1;durP2;ratioP2;P2;SDS_P1;SDS_P2;PMS_P1;PMS_P2;Temp;Humidity;BMP_temperature;BMP_pressure;BME280_temperature;BME280_humidity;BME280_pressure;Samples;Min_cycle;Max_cycle;Signal;HPM_P1;HPM_P2
2022/03/10 00:00:56;;;;;;;22.80;14.13;;;3.60;99.10;;;;;;5009622;28;20029;-71
2022/03/10 00:03:22;;;;;;;21.90;12.63;;;3.80;99.20;;;;;;5009765;28;20383;-71
2022/03/10 00:05:48;;;;;;;24.53;14.83;;;;;;;;;;5009868;28;20037;-71
2022/03/10 00:08:14;;;;;;;24.97;15.23;;;3.70;99.40;;;;;;5009895;28;20014;-71
2022/03/10 00:10:40;;;;;;;22.47;14.80;;;;;;;;;;5009754;28;20045;-71
2022/03/10 00:13:06;;;;;;;31.97;15.33;;;;;;;;;;5009168;28;20407;-71
2022/03/10 00:15:32;;;;;;;20.93;13.10;;;;;;;;;;5009372;28;20109;-71
2022/03/10 00:18:01;;;;;;;19.60;12.13;;;3.70;99.40;;;;;;5009428;28;20156;-70
2022/03/10 00:20:26;;;;;;;25.30;13.73;;;3.70;99.50;;;;;;5009696;28;20018;-70
2022/03/10 00:22:53;;;;;;;26.20;15.13;;;3.60;99.50;;;;;;5009399;28;20125;-71
2022/03/10 00:25:19;;;;;;;24.70;15.07;;;;;;;;;;5009596;28;20034;-70
2022/03/10 00:27:46;;;;;;;21.53;14.03;;;3.80;99.30;;;;;;5009344;28;20033;-70
2022/03/10 00:30:12;;;;;;;21.30;13.63;;;3.90;99.20;;;;;;5009477;28;20036;-70
2022/03/10 00:32:44;;;;;;;23.47;14.10;;;4.10;99.20;;;;;;5008149;28;20538;-71
2022/03/10 00:35:10;;;;;;;23.17;12.00;;;3.70;99.20;;;;;;5007516;28;20037;-70
2022/03/10 00:37:36;;;;;;;24.27;13.20;;;3.70;99.30;;;;;;5008569;28;20026;-71
2022/03/10 00:40:02;;;;;;;21.93;12.60;;;3.60;93.70;;;;;;5008423;28;20065;-71
2022/03/10 00:42:33;;;;;;;20.33;13.37;;;4.00;99.60;;;;;;5010270;28;20111;-70
2022/03/10 00:44:59;;;;;;;28.80;14.93;;;2.90;99.50;;;;;;5012882;28;20380;-71
2022/03/10 00:47:24;;;;;;;28.27;15.73;;;3.40;99.80;;;;;;5013080;28;20026;-71
2022/03/10 00:49:50;;;;;;;21.43;14.83;;;3.30;99.80;;;;;;5011357;28;20060;-70
2022/03/10 00:52:16;;;;;;;24.47;15.00;;;;;;;;;;5012770;28;20026;-70
2022/03/10 00:54:42;;;;;;;20.70;13.23;;;3.40;99.80;;;;;;5012173;28;20030;-70
2022/03/10 00:57:08;;;;;;;23.47;12.83;;;3.30;99.90;;;;;;5011385;28;20083;-69
2022/03/10 00:59:34;;;;;;;22.20;13.03;;;;;;;;;;5011532;28;20030;-70
2022/03/10 01:01:59;;;;;;;21.47;13.53;;;;;;;;;;5012427;28;20052;-70
2022/03/10 01:04:25;;;;;;;18.07;12.83;;;3.10;99.90;;;;;;5011339;28;20444;-70
2022/03/10 01:06:50;;;;;;;20.03;12.90;;;3.10;99.90;;;;;;5012438;28;20133;-70
2022/03/10 01:09:16;;;;;;;20.10;12.00;;;3.00;98.20;;;;;;5012311;28;20076;-69
2022/03/10 01:11:41;;;;;;;25.57;13.47;;;3.10;97.90;;;;;;5011207;28;20052;-69
2022/03/10 01:14:07;;;;;;;24.60;12.80;;;;;;;;;;5011806;28;20117;-70
2022/03/10 01:16:33;;;;;;;20.80;11.23;;;3.10;99.90;;;;;;5012183;28;20438;-70
2022/03/10 01:18:58;;;;;;;18.60;11.13;;;3.10;97.30;;;;;;5012046;28;20038;-69
2022/03/10 01:21:24;;;;;;;19.73;12.33;;;3.00;99.90;;;;;;5012309;28;20137;-69
2022/03/10 01:23:50;;;;;;;16.13;11.43;;;3.10;99.90;;;;;;5011917;28;20026;-70
2022/03/10 01:26:15;;;;;;;18.77;12.00;;;;;;;;;;5012352;28;20037;-70
2022/03/10 01:28:41;;;;;;;22.83;12.53;;;3.20;99.90;;;;;;5012376;28;20459;-70
2022/03/10 01:31:06;;;;;;;18.43;11.63;;;3.10;99.90;;;;;;5010587;28;20030;-70
2022/03/10 01:33:33;;;;;;;20.10;12.27;;;3.00;99.90;;;;;;5012225;28;20092;-70
2022/03/10 01:35:58;;;;;;;20.80;12.03;;;2.90;97.50;;;;;;5011526;28;20025;-69
2022/03/10 01:38:24;;;;;;;21.40;12.17;;;2.90;99.90;;;;;;5010338;28;20030;-69
2022/03/10 01:40:49;;;;;;;21.37;12.87;;;3.10;99.90;;;;;;5011796;28;20026;-69
2022/03/10 01:43:15;;;;;;;21.77;12.63;;;;;;;;;;5012004;28;20029;-69
2022/03/10 01:45:41;;;;;;;21.83;12.63;;;;;;;;;;5011896;28;20663;-69
2022/03/10 01:48:07;;;;;;;21.20;12.17;;;;;;;;;;5011574;28;20105;-70
2022/03/10 01:50:33;;;;;;;26.00;12.40;;;3.20;99.90;;;;;;5011608;28;20448;-70
2022/03/10 01:53:01;;;;;;;23.33;15.80;;;3.00;93.60;;;;;;5010714;28;20091;-70
2022/03/10 01:55:27;;;;;;;21.30;12.77;;;3.20;99.90;;;;;;5010785;28;20467;-70
2022/03/10 01:57:53;;;;;;;22.73;13.90;;;3.40;96.60;;;;;;5011458;28;20022;-69
2022/03/10 02:00:18;;;;;;;18.97;11.43;;;3.60;99.90;;;;;;5011571;28;20060;-70
2022/03/10 02:02:44;;;;;;;20.40;12.37;;;3.70;99.90;;;;;;5011789;28;20475;-70
2022/03/10 02:05:10;;;;;;;21.77;12.37;;;3.30;95.10;;;;;;5011258;28;20026;-69
2022/03/10 02:10:24;;;;;;;22.00;14.50;;;3.40;99.90;;;;;;4992059;28;20503;-70
2022/03/10 02:12:52;;;;;;;23.60;13.40;;;3.40;93.30;;;;;;4991834;28;20062;-69
2022/03/10 02:18:11;;;;;;;20.80;14.30;;;3.70;99.90;;;;;;4969662;28;20030;-69
2022/03/10 02:20:38;;;;;;;25.83;16.00;;;3.50;99.90;;;;;;4970097;28;20035;-70
2022/03/10 02:23:05;;;;;;;28.60;15.87;;;3.40;93.40;;;;;;4967908;28;20051;-69
2022/03/10 02:25:31;;;;;;;27.37;14.80;;;;;;;;;;4950564;28;20047;-70
2022/03/10 02:27:57;;;;;;;23.00;14.13;;;;;;;;;;4950367;29;20042;-70
2022/03/10 02:30:25;;;;;;;19.67;12.20;;;3.40;96.30;;;;;;4950658;29;20048;-69
2022/03/10 02:32:51;;;;;;;26.90;15.23;;;3.30;99.90;;;;;;4950335;29;20035;-69
2022/03/10 02:35:18;;;;;;;24.03;14.17;;;;;;;;;;4950459;29;20116;-70
2022/03/10 02:37:44;;;;;;;25.87;15.67;;;3.20;99.90;;;;;;4965983;28;20098;-70
2022/03/10 02:40:10;;;;;;;20.53;13.13;;;3.20;97.50;;;;;;4969406;28;20034;-69
2022/03/10 02:42:36;;;;;;;21.73;13.67;;;3.30;99.90;;;;;;4953329;28;20046;-70
2022/03/10 02:45:02;;;;;;;20.30;13.07;;;3.30;99.90;;;;;;4969423;28;20130;-71
2022/03/10 02:47:28;;;;;;;22.27;14.27;;;;;;;;;;4969521;28;20184;-70
2022/03/10 02:49:54;;;;;;;24.60;15.83;;;3.30;99.90;;;;;;4969144;28;20515;-71
2022/03/10 02:52:19;;;;;;;26.13;15.03;;;3.20;99.90;;;;;;4956907;28;20037;-71
2022/03/10 02:54:47;;;;;;;22.03;15.03;;;3.20;99.90;;;;;;4970137;28;20076;-71
2022/03/10 02:57:14;;;;;;;25.60;13.90;;;3.10;99.90;;;;;;5009019;28;20029;-70
2022/03/10 02:59:40;;;;;;;22.40;13.23;;;;;;;;;;5010793;28;20032;-71
2022/03/10 03:02:05;;;;;;;27.83;16.20;;;3.00;99.90;;;;;;5010331;28;20029;-70
2022/03/10 03:04:31;;;;;;;21.87;14.47;;;3.10;93.80;;;;;;5010452;28;20026;-70
2022/03/10 03:06:57;;;;;;;24.90;14.97;;;3.20;99.90;;;;;;5009324;28;20475;-71
2022/03/10 03:09:23;;;;;;;23.77;15.30;;;3.20;97.10;;;;;;5009028;28;20029;-70
2022/03/10 03:11:49;;;;;;;24.20;15.90;;;;;;;;;;5010238;28;20041;-70
2022/03/10 03:14:15;;;;;;;19.47;12.53;;;;;;;;;;5010398;28;20030;-71
2022/03/10 03:16:41;;;;;;;22.87;13.57;;;3.20;99.90;;;;;;5010399;28;20049;-71
2022/03/10 03:19:07;;;;;;;22.40;14.47;;;;;;;;;;5010110;28;20026;-70
2022/03/10 03:21:32;;;;;;;16.63;10.67;;;3.00;99.90;;;;;;5009613;28;20057;-71
2022/03/10 03:23:58;;;;;;;23.10;13.83;;;;;;;;;;5008126;28;20030;-71
2022/03/10 03:26:23;;;;;;;22.67;14.03;;;3.10;99.90;;;;;;5009292;28;20053;-71
2022/03/10 03:28:49;;;;;;;22.60;13.93;;;3.10;99.90;;;;;;5010059;28;20034;-71
2022/03/10 03:31:16;;;;;;;23.40;13.87;;;;;;;;;;5009904;28;20042;-70
2022/03/10 03:33:42;;;;;;;23.90;16.30;;;3.20;94.70;;;;;;5010080;28;20133;-71
2022/03/10 03:36:08;;;;;;;19.00;12.33;;;3.10;99.90;;;;;;5009277;28;20551;-71
2022/03/10 03:38:34;;;;;;;27.00;17.30;;;3.00;99.90;;;;;;5009965;28;20050;-70
2022/03/10 03:40:59;;;;;;;20.87;13.73;;;2.90;99.90;;;;;;5009767;28;20062;-71
2022/03/10 03:43:26;;;;;;;22.97;14.20;;;;;;;;;;5009982;28;20030;-71
2022/03/10 03:45:51;;;;;;;23.00;13.20;;;2.90;99.90;;;;;;5009854;28;20131;-71
2022/03/10 03:48:17;;;;;;;26.87;14.73;;;;;;;;;;5010176;28;20471;-71
2022/03/10 03:50:42;;;;;;;26.60;13.40;;;2.80;99.90;;;;;;5009351;28;20058;-71
2022/03/10 03:53:08;;;;;;;22.40;14.07;;;2.80;99.90;;;;;;5008230;28;20086;-70
2022/03/10 03:55:33;;;;;;;24.17;15.50;;;3.10;99.90;;;;;;5009794;28;20073;-71
2022/03/10 03:57:59;;;;;;;23.37;14.70;;;3.00;99.90;;;;;;5009721;28;20029;-70
2022/03/10 04:00:25;;;;;;;21.30;13.93;;;;;;;;;;5009947;28;20034;-71
2022/03/10 04:02:50;;;;;;;22.23;14.47;;;3.00;99.90;;;;;;5009798;28;20406;-72
2022/03/10 04:05:16;;;;;;;24.27;14.60;;;3.20;99.90;;;;;;5009505;28;20042;-71
2022/03/10 04:07:42;;;;;;;29.53;16.80;;;2.80;99.90;;;;;;5009558;28;20129;-71
2022/03/10 04:10:08;;;;;;;26.40;16.03;;;3.00;99.90;;;;;;5009577;28;20482;-70
2022/03/10 04:12:34;;;;;;;30.87;18.67;;;2.90;99.90;;;;;;5008517;28;20034;-71
2022/03/10 04:15:00;;;;;;;28.90;17.10;;;2.90;99.90;;;;;;5009592;28;20030;-70
2022/03/10 04:17:26;;;;;;;26.70;15.80;;;2.90;93.80;;;;;;5009994;28;20471;-70
2022/03/10 04:19:52;;;;;;;24.47;13.67;;;;;;;;;;5013103;28;20034;-72
2022/03/10 04:22:18;;;;;;;27.17;15.50;;;;;;;;;;5013457;28;20030;-70
2022/03/10 04:24:44;;;;;;;24.33;13.10;;;;;;;;;;5013313;28;20112;-70
2022/03/10 04:27:10;;;;;;;29.23;16.97;;;2.60;99.90;;;;;;5013285;28;20026;-71
2022/03/10 04:29:36;;;;;;;27.67;14.10;;;;;;;;;;5013224;28;20030;-70
2022/03/10 04:32:01;;;;;;;27.17;13.27;;;2.30;99.90;;;;;;5012785;28;20029;-70
2022/03/10 04:34:27;;;;;;;27.17;14.80;;;;;;;;;;5013004;28;20042;-69
2022/03/10 04:36:53;;;;;;;28.60;16.70;;;2.40;99.90;;;;;;5013007;28;20034;-69
2022/03/10 04:39:19;;;;;;;24.60;14.77;;;;;;;;;;5012559;28;20424;-70
2022/03/10 04:41:45;;;;;;;25.43;15.07;;;;;;;;;;5013184;28;20030;-70
2022/03/10 04:44:10;;;;;;;26.20;14.90;;;2.90;99.90;;;;;;5012976;28;20018;-70
2022/03/10 04:46:37;;;;;;;26.60;16.37;;;2.80;99.90;;;;;;5011120;28;20045;-69
2022/03/10 04:49:03;;;;;;;27.43;16.20;;;;;;;;;;5012235;28;20034;-70
2022/03/10 04:51:29;;;;;;;19.00;10.90;;;;;;;;;;5012797;28;20084;-70
2022/03/10 04:53:55;;;;;;;24.10;15.03;;;;;;;;;;5012452;28;20021;-70
2022/03/10 04:56:21;;;;;;;20.17;13.43;;;2.70;99.90;;;;;;5011595;28;20117;-70
2022/03/10 04:58:46;;;;;;;27.77;15.97;;;2.60;96.30;;;;;;5012897;28;20435;-70
2022/03/10 05:01:13;;;;;;;27.00;14.10;;;;;;;;;;5012052;28;20076;-70
2022/03/10 05:03:39;;;;;;;21.20;13.63;;;2.10;98.00;;;;;;5012391;28;20045;-70
2022/03/10 05:06:05;;;;;;;23.03;13.33;;;2.10;99.90;;;;;;5012322;28;20034;-71
2022/03/10 05:08:30;;;;;;;25.93;13.57;;;2.00;99.90;;;;;;5011202;28;20033;-70
2022/03/10 05:10:57;;;;;;;22.87;13.37;;;2.20;99.90;;;;;;5012005;28;20401;-70
2022/03/10 05:13:23;;;;;;;21.43;12.70;;;;;;;;;;5012235;28;20061;-70
2022/03/10 05:15:49;;;;;;;21.83;13.70;;;;;;;;;;5011704;28;20045;-70
2022/03/10 05:18:15;;;;;;;27.27;15.30;;;1.50;99.90;;;;;;5012353;28;20100;-70
2022/03/10 05:20:41;;;;;;;25.00;15.57;;;;;;;;;;5012354;28;20116;-70
2022/03/10 05:23:06;;;;;;;25.03;15.23;;;2.00;99.90;;;;;;5011912;28;20030;-70
2022/03/10 05:25:40;;;;;;;26.97;15.73;;;2.20;99.90;;;;;;5012103;28;20041;-70
2022/03/10 05:28:11;;;;;;;25.77;14.70;;;2.20;95.90;;;;;;5012118;28;20112;-70
2022/03/10 05:30:37;;;;;;;30.30;16.70;;;;;;;;;;5011653;28;20030;-70
2022/03/10 05:33:02;;;;;;;30.03;15.90;;;2.80;99.90;;;;;;5011803;28;20505;-70
2022/03/10 05:35:29;;;;;;;27.37;16.10;;;;;;;;;;5011984;28;20033;-70
2022/03/10 05:37:55;;;;;;;28.40;18.13;;;;;;;;;;5011824;28;20077;-70
2022/03/10 05:40:22;;;;;;;30.87;16.73;;;;;;;;;;5012173;28;20028;-70
2022/03/10 05:42:48;;;;;;;26.50;14.83;;;2.50;94.90;;;;;;5012090;28;20022;-70
2022/03/10 05:45:19;;;;;;;28.93;17.10;;;2.60;99.90;;;;;;5011546;28;20536;-70
2022/03/10 05:47:45;;;;;;;22.13;15.03;;;;;;;;;;5010825;28;20033;-70
2022/03/10 05:50:11;;;;;;;24.90;16.40;;;2.50;99.90;;;;;;5010922;28;20050;-70
2022/03/10 05:52:37;;;;;;;26.83;15.60;;;;;;;;;;5011549;28;20105;-70
2022/03/10 05:55:03;;;;;;;29.63;16.23;;;2.30;99.90;;;;;;5011502;28;20080;-70
2022/03/10 05:57:29;;;;;;;30.60;17.37;;;2.50;99.90;;;;;;5011839;28;20038;-69
2022/03/10 05:59:55;;;;;;;31.33;15.13;;;;;;;;;;5011031;28;20030;-70
2022/03/10 06:02:21;;;;;;;26.83;15.63;;;;;;;;;;5011571;28;20022;-70
2022/03/10 06:04:46;;;;;;;22.80;13.60;;;2.70;99.90;;;;;;5011650;28;20037;-70
2022/03/10 06:07:12;;;;;;;29.90;15.17;;;;;;;;;;5009638;28;20192;-69
2022/03/10 06:09:38;;;;;;;24.50;15.67;;;2.40;99.90;;;;;;5010043;28;20029;-70
2022/03/10 06:12:04;;;;;;;28.03;15.83;;;;;;;;;;5011269;28;20041;-70
2022/03/10 06:14:30;;;;;;;20.70;13.83;;;2.20;99.90;;;;;;5010868;28;20091;-70
2022/03/10 06:16:56;;;;;;;26.70;15.17;;;;;;;;;;5011120;28;20033;-69
2022/03/10 06:19:22;;;;;;;28.43;16.17;;;2.20;99.90;;;;;;5011238;28;20041;-70
2022/03/10 06:21:48;;;;;;;23.50;15.47;;;;;;;;;;5010491;28;20448;-70
2022/03/10 06:24:14;;;;;;;29.70;16.13;;;2.40;99.90;;;;;;5011102;28;20050;-70
2022/03/10 06:26:39;;;;;;;24.47;14.13;;;2.30;99.90;;;;;;5011279;28;20042;-70
2022/03/10 06:29:05;;;;;;;25.07;13.03;;;2.40;99.90;;;;;;5010477;28;20029;-70
2022/03/10 06:31:31;;;;;;;29.47;17.13;;;;;;;;;;5010784;28;20422;-70
2022/03/10 06:33:57;;;;;;;28.70;14.37;;;2.30;99.90;;;;;;5010366;28;20057;-70
2022/03/10 06:36:23;;;;;;;21.60;13.77;;;2.30;98.20;;;;;;5011055;28;20053;-70
2022/03/10 06:38:49;;;;;;;28.37;16.03;;;2.30;99.90;;;;;;5010885;28;20029;-70
2022/03/10 06:41:15;;;;;;;23.63;14.13;;;;;;;;;;5010413;28;20034;-69
2022/03/10 06:43:40;;;;;;;27.63;15.80;;;2.50;99.90;;;;;;5010404;28;20080;-72
2022/03/10 06:46:06;;;;;;;32.47;16.63;;;;;;;;;;5010527;28;20438;-69
2022/03/10 06:48:32;;;;;;;28.13;16.97;;;3.10;99.90;;;;;;5009892;28;20467;-70
2022/03/10 06:50:57;;;;;;;25.87;16.13;;;2.50;99.90;;;;;;5010277;28;20056;-69
2022/03/10 06:53:23;;;;;;;29.57;15.97;;;2.70;99.90;;;;;;5010381;28;20088;-69
2022/03/10 06:55:49;;;;;;;29.73;16.37;;;;;;;;;;5010174;28;20105;-72
2022/03/10 06:58:14;;;;;;;30.23;15.73;;;3.00;96.50;;;;;;5010108;28;20037;-70
2022/03/10 07:00:40;;;;;;;34.10;16.80;;;3.00;99.90;;;;;;5010233;28;20419;-70
2022/03/10 07:03:06;;;;;;;25.63;14.30;;;;;;;;;;5010449;28;20702;-70
2022/03/10 07:05:32;;;;;;;23.00;14.00;;;3.10;99.90;;;;;;5010229;28;20069;-70
2022/03/10 07:07:58;;;;;;;20.63;12.73;;;;;;;;;;5010197;28;20049;-70
2022/03/10 07:10:24;;;;;;;22.53;14.93;;;;;;;;;;5010053;28;20034;-70
2022/03/10 07:12:50;;;;;;;21.00;14.63;;;3.20;97.00;;;;;;5009105;28;20030;-70
2022/03/10 07:15:16;;;;;;;26.20;15.17;;;;;;;;;;5010443;28;20109;-70
2022/03/10 07:17:41;;;;;;;21.83;14.43;;;3.40;93.90;;;;;;5010472;28;20561;-70
2022/03/10 07:20:08;;;;;;;20.17;14.00;;;3.40;99.90;;;;;;5010307;28;20507;-70
2022/03/10 07:22:34;;;;;;;16.70;11.37;;;3.50;99.90;;;;;;5009003;28;20042;-70
2022/03/10 07:25:00;;;;;;;20.03;12.60;;;3.50;97.80;;;;;;5008770;28;20139;-70
2022/03/10 07:27:26;;;;;;;23.67;13.50;;;3.20;99.90;;;;;;5008452;28;20033;-70
2022/03/10 07:29:51;;;;;;;23.50;14.10;;;;;;;;;;5008578;28;20033;-70
2022/03/10 07:32:17;;;;;;;25.97;14.87;;;;;;;;;;5010201;28;20391;-70
2022/03/10 07:34:47;;;;;;;23.87;15.07;;;3.80;99.90;;;;;;5010300;28;20137;-70
2022/03/10 07:37:15;;;;;;;24.47;15.67;;;4.10;99.90;;;;;;5008793;28;20065;-70
2022/03/10 07:39:41;;;;;;;22.67;13.67;;;3.90;99.70;;;;;;5010077;28;20059;-70
2022/03/10 07:42:07;;;;;;;22.37;14.63;;;4.00;99.60;;;;;;5009595;28;20153;-71
2022/03/10 07:44:33;;;;;;;23.13;15.20;;;4.30;99.60;;;;;;5009922;28;20109;-71
2022/03/10 07:46:59;;;;;;;25.47;15.40;;;;;;;;;;5009571;28;20033;-71
2022/03/10 07:49:24;;;;;;;25.37;15.67;;;4.40;99.30;;;;;;5009718;28;20141;-72
2022/03/10 07:51:50;;;;;;;25.00;16.23;;;;;;;;;;5009701;28;20030;-71
2022/03/10 07:54:16;;;;;;;25.23;12.80;;;4.50;99.00;;;;;;5013609;28;20030;-71
2022/03/10 07:56:42;;;;;;;21.87;13.87;;;;;;;;;;5012985;28;20049;-71
2022/03/10 07:59:07;;;;;;;24.83;14.60;;;4.80;98.80;;;;;;5012684;28;20061;-72
2022/03/10 08:01:33;;;;;;;24.90;15.13;;;4.70;98.70;;;;;;5013544;28;20044;-71
2022/03/10 08:03:58;;;;;;;24.60;16.07;;;4.90;98.70;;;;;;5011942;28;20034;-71
2022/03/10 08:06:26;;;;;;;25.20;15.10;;;;;;;;;;5012251;28;20041;-71
2022/03/10 08:08:52;;;;;;;22.47;14.90;;;4.90;97.20;;;;;;5012154;28;20033;-71
2022/03/10 08:11:18;;;;;;;24.57;14.37;;;;;;;;;;5011701;28;20053;-71
2022/03/10 08:13:44;;;;;;;20.27;11.87;;;;;;;;;;5012229;28;20054;-71
2022/03/10 08:16:10;;;;;;;20.10;14.00;;;5.40;98.40;;;;;;5011342;28;20030;-72
2022/03/10 08:18:36;;;;;;;24.37;13.67;;;;;;;;;;5011878;28;20026;-71
2022/03/10 08:21:02;;;;;;;19.87;14.03;;;5.30;92.50;;;;;;5012147;28;20153;-71
2022/03/10 08:23:28;;;;;;;24.10;15.23;;;5.40;95.20;;;;;;5012021;28;20126;-71
2022/03/10 08:25:54;;;;;;;19.73;13.43;;;5.50;98.00;;;;;;5010873;28;20501;-72
2022/03/10 08:28:20;;;;;;;25.63;14.87;;;5.70;97.90;;;;;;5012133;28;20414;-72
2022/03/10 08:30:46;;;;;;;23.40;14.37;;;5.70;97.90;;;;;;5011652;28;20034;-71
2022/03/10 08:33:11;;;;;;;23.30;14.87;;;;;;;;;;5011582;28;20030;-71
2022/03/10 08:35:37;;;;;;;25.80;15.70;;;5.70;97.70;;;;;;5012149;28;20048;-72
2022/03/10 08:38:03;;;;;;;19.70;13.53;;;;;;;;;;5011228;28;20069;-71
2022/03/10 08:40:29;;;;;;;19.90;14.37;;;;;;;;;;5011322;28;20033;-71
2022/03/10 08:42:56;;;;;;;21.70;14.83;;;5.90;90.50;;;;;;5011035;28;20110;-70
2022/03/10 08:45:25;;;;;;;24.77;16.27;;;6.00;97.40;;;;;;5011217;28;20120;-69
2022/03/10 08:47:51;;;;;;;20.33;14.30;;;6.20;97.30;;;;;;5010971;28;20426;-69
2022/03/10 08:50:16;;;;;;;19.70;12.43;;;6.30;97.30;;;;;;5011313;28;20068;-70
2022/03/10 08:52:42;;;;;;;19.50;12.93;;;6.30;97.20;;;;;;5012687;28;20022;-71
2022/03/10 08:55:08;;;;;;;23.67;13.80;;;6.50;97.20;;;;;;5012090;28;20056;-71
2022/03/10 08:57:34;;;;;;;23.93;15.77;;;6.40;94.60;;;;;;5011337;28;20080;-70
2022/03/10 09:00:00;;;;;;;23.17;14.67;;;;;;;;;;5010973;28;20482;-70
2022/03/10 09:02:25;;;;;;;21.60;14.07;;;6.70;96.10;;;;;;5011458;28;20022;-70
2022/03/10 09:04:51;;;;;;;23.43;14.70;;;6.60;97.00;;;;;;5011728;28;20475;-71
2022/03/10 09:07:16;;;;;;;18.67;12.73;;;6.90;97.10;;;;;;5010941;28;20022;-71
2022/03/10 09:09:42;;;;;;;25.37;15.13;;;6.80;96.90;;;;;;5011449;28;20045;-70
2022/03/10 09:12:08;;;;;;;23.00;14.83;;;6.90;96.80;;;;;;5010281;28;20534;-71
2022/03/10 09:14:34;;;;;;;20.57;14.13;;;6.90;96.90;;;;;;5012312;28;20117;-70
2022/03/10 09:17:00;;;;;;;23.17;14.27;;;7.00;96.80;;;;;;5011152;28;20036;-70
2022/03/10 09:19:25;;;;;;;23.13;16.03;;;7.40;96.70;;;;;;5011920;28;20407;-70
2022/03/10 09:21:51;;;;;;;22.47;14.67;;;7.30;96.50;;;;;;5011694;28;20030;-70
2022/03/10 09:24:17;;;;;;;20.83;14.00;;;7.10;96.40;;;;;;5011023;28;20029;-70
2022/03/10 09:26:43;;;;;;;24.07;15.80;;;7.60;96.40;;;;;;5012050;28;20418;-71
2022/03/10 09:29:08;;;;;;;21.57;15.63;;;;;;;;;;5011334;28;20053;-70
2022/03/10 09:31:34;;;;;;;23.10;13.57;;;8.00;96.20;;;;;;5010626;28;20204;-69
2022/03/10 09:34:00;;;;;;;21.83;13.87;;;7.80;96.00;;;;;;5011887;28;20030;-71
2022/03/10 09:36:26;;;;;;;26.10;15.00;;;;;;;;;;5011491;28;20030;-71
2022/03/10 09:38:55;;;;;;;24.97;14.80;;;8.00;86.00;;;;;;5011572;28;20038;-70
2022/03/10 09:41:21;;;;;;;27.07;16.73;;;8.20;96.10;;;;;;5004097;28;20057;-70
2022/03/10 09:43:48;;;;;;;25.77;15.47;;;;;;;;;;5010381;28;20030;-70
2022/03/10 09:46:14;;;;;;;21.87;14.57;;;;;;;;;;5011570;28;20386;-71
2022/03/10 09:48:41;;;;;;;26.00;14.20;;;8.30;95.30;;;;;;5011660;28;20022;-70
2022/03/10 09:51:07;;;;;;;23.87;16.07;;;8.50;86.50;;;;;;5010247;28;20498;-70
2022/03/10 09:53:35;;;;;;;22.50;15.53;;;;;;;;;;5011111;28;20482;-70
2022/03/10 09:56:02;;;;;;;22.13;15.97;;;8.80;90.00;;;;;;5010701;28;20103;-70
2022/03/10 09:58:28;;;;;;;23.53;16.80;;;;;;;;;;5009764;28;20479;-70
2022/03/10 10:01:02;;;;;;;23.20;15.30;;;9.00;93.70;;;;;;5010643;28;20041;-71
2022/03/10 10:03:28;;;;;;;24.05;14.48;;;8.90;95.00;;;;;;5011141;28;20088;-70
2022/03/10 10:05:58;;;;;;;23.50;14.27;;;9.00;94.40;;;;;;5010331;28;20042;-70
2022/03/10 10:08:24;;;;;;;21.00;14.80;;;9.20;91.80;;;;;;5009047;28;20521;-71
2022/03/10 10:10:51;;;;;;;22.77;14.30;;;9.10;94.80;;;;;;5008956;28;20053;-71
2022/03/10 10:13:34;;;;;;;18.97;13.53;;;9.20;94.70;;;;;;5010447;28;20026;-69
2022/03/10 10:16:14;;;;;;;24.53;15.70;;;9.30;94.60;;;;;;5008013;28;20030;-70
2022/03/10 10:18:41;;;;;;;24.47;15.37;;;9.30;91.20;;;;;;5010714;28;20030;-71
2022/03/10 10:21:08;;;;;;;24.57;14.87;;;9.50;94.60;;;;;;5009187;28;20432;-69
2022/03/10 10:23:36;;;;;;;25.33;15.23;;;9.60;94.50;;;;;;5003893;28;20026;-70
2022/03/10 10:26:04;;;;;;;20.70;14.03;;;9.60;84.90;;;;;;4990965;28;20057;-70
2022/03/10 10:28:32;;;;;;;26.43;18.30;;;9.90;94.40;;;;;;4991036;28;20031;-71
2022/03/10 10:31:03;;;;;;;22.53;16.60;;;9.90;94.40;;;;;;5009626;28;20033;-69
2022/03/10 10:33:31;;;;;;;25.53;17.33;;;9.90;94.20;;;;;;5006477;28;20037;-70
2022/03/10 10:36:18;;;;;;;27.47;17.53;;;10.10;94.20;;;;;;5008490;28;20336;-69
2022/03/10 10:38:45;;;;;;;20.03;14.37;;;10.00;84.20;;;;;;5010728;28;20050;-70
2022/03/10 10:41:15;;;;;;;21.53;14.60;;;9.90;92.80;;;;;;5009185;28;20475;-70
2022/03/10 10:43:43;;;;;;;22.90;14.80;;;10.00;84.30;;;;;;5008584;28;20394;-70
2022/03/10 10:46:10;;;;;;;25.77;16.93;;;;;;;;;;5008967;28;20624;-71
2022/03/10 10:48:47;;;;;;;26.57;17.70;;;10.10;94.30;;;;;;5010485;28;20058;-70
2022/03/10 10:51:13;;;;;;;22.77;14.97;;;;;;;;;;5009407;28;20038;-70
2022/03/10 10:53:40;;;;;;;18.87;14.17;;;10.30;94.10;;;;;;5010354;28;20133;-70
2022/03/10 10:56:06;;;;;;;23.20;16.50;;;10.30;94.10;;;;;;5010117;28;20037;-69
2022/03/10 10:58:32;;;;;;;22.00;14.47;;;10.50;94.20;;;;;;5008789;28;20503;-70
2022/03/10 11:00:58;;;;;;;24.47;16.70;;;10.50;94.10;;;;;;5008799;28;20384;-69
2022/03/10 11:03:25;;;;;;;20.67;14.20;;;10.50;83.70;;;;;;5008993;28;20044;-70
2022/03/10 11:05:52;;;;;;;24.37;15.33;;;10.70;84.90;;;;;;5009559;28;20556;-71
2022/03/10 11:08:22;;;;;;;25.77;16.00;;;10.40;81.60;;;;;;5009666;28;20033;-70
2022/03/10 11:10:50;;;;;;;24.20;15.93;;;10.20;86.50;;;;;;5009987;28;20030;-70
2022/03/10 11:13:16;;;;;;;20.57;15.03;;;;;;;;;;5010280;28;20034;-70
2022/03/10 11:15:43;;;;;;;22.50;15.43;;;10.60;93.70;;;;;;5010148;28;20058;-70
2022/03/10 11:18:10;;;;;;;25.73;17.10;;;10.70;93.40;;;;;;5009079;28;20324;-70
2022/03/10 11:20:47;;;;;;;21.23;14.33;;;10.90;93.40;;;;;;5010168;28;20065;-69
2022/03/10 11:23:45;;;;;;;22.53;15.87;;;10.90;80.40;;;;;;5009724;28;20363;-72
2022/03/10 11:26:21;;;;;;;24.20;14.67;;;10.50;93.30;;;;;;5009685;28;20474;-70
2022/03/10 11:28:49;;;;;;;22.90;17.23;;;11.10;93.40;;;;;;5009850;28;20057;-70
2022/03/10 11:31:15;;;;;;;24.20;15.63;;;;;;;;;;5010099;28;20032;-70
2022/03/10 11:33:43;;;;;;;22.00;14.90;;;11.10;93.30;;;;;;5009377;28;20096;-70
2022/03/10 11:36:22;;;;;;;23.97;16.80;;;11.00;93.10;;;;;;5009139;28;20022;-70
2022/03/10 11:38:56;;;;;;;21.53;16.20;;;10.90;79.70;;;;;;5009389;28;20033;-70
2022/03/10 11:41:26;;;;;;;22.58;16.67;;;10.90;92.90;;;;;;5006861;28;20022;-70
2022/03/10 11:43:58;;;;;;;20.03;14.27;;;11.00;92.80;;;;;;5009338;28;20029;-70
2022/03/10 11:46:31;;;;;;;25.23;16.37;;;11.30;92.70;;;;;;5006930;28;20091;-70
2022/03/10 11:49:15;;;;;;;21.90;14.43;;;11.40;92.60;;;;;;5009230;28;20531;-70
2022/03/10 11:51:46;;;;;;;23.67;15.45;;;11.70;92.80;;;;;;5008439;28;20129;-70
2022/03/10 11:54:17;;;;;;;24.53;14.33;;;11.50;92.70;;;;;;5009720;28;20052;-71
2022/03/10 11:56:57;;;;;;;26.03;17.13;;;11.50;92.50;;;;;;5009192;28;20022;-70
2022/03/10 11:59:42;;;;;;;22.73;15.73;;;11.60;86.50;;;;;;5007343;28;20022;-70
2022/03/10 12:02:28;;;;;;;27.20;17.60;;;11.10;92.40;;;;;;5008973;28;20034;-70
2022/03/10 12:04:57;;;;;;;18.43;13.07;;;11.10;92.30;;;;;;5009479;28;20026;-71
2022/03/10 12:07:28;;;;;;;22.23;16.03;;;11.50;92.40;;;;;;5009082;28;20033;-71
2022/03/10 12:10:01;;;;;;;20.37;15.10;;;11.40;92.40;;;;;;5008876;28;20037;-70
2022/03/10 12:12:28;;;;;;;22.87;14.13;;;11.30;92.30;;;;;;5005759;28;20744;-70
2022/03/10 12:14:56;;;;;;;21.60;13.57;;;;;;;;;;5009697;28;20022;-69
2022/03/10 12:17:52;;;;;;;21.13;13.93;;;11.60;77.40;;;;;;5008952;28;20037;-69
2022/03/10 12:20:18;;;;;;;20.57;13.83;;;11.80;92.10;;;;;;5010144;28;20030;-69
2022/03/10 12:23:03;;;;;;;18.90;14.07;;;11.80;92.20;;;;;;5008923;28;20026;-69
2022/03/10 12:25:49;;;;;;;22.52;14.52;;;11.80;91.60;;;;;;5008620;28;20092;-70
2022/03/10 12:28:26;;;;;;;22.07;15.53;;;11.70;91.90;;;;;;5009594;28;20033;-70
2022/03/10 12:31:01;;;;;;;21.60;13.13;;;11.90;78.70;;;;;;5009174;28;20022;-70
2022/03/10 12:33:26;;;;;;;20.93;12.80;;;11.80;91.50;;;;;;5009604;28;20482;-70
2022/03/10 12:35:56;;;;;;;20.27;14.43;;;12.20;91.30;;;;;;5009270;28;20038;-71
2022/03/10 12:38:54;;;;;;;22.67;15.67;;;12.20;91.40;;;;;;5009417;28;20475;-71
2022/03/10 12:41:20;;;;;;;24.17;17.57;;;;;;;;;;4980191;28;20099;-72
2022/03/10 12:43:55;;;;;;;19.07;12.83;;;12.00;91.90;;;;;;5013295;28;20467;-71
2022/03/10 12:46:22;;;;;;;17.90;14.37;;;11.50;86.60;;;;;;5012355;28;20049;-71
2022/03/10 12:49:30;;;;;;;19.73;15.00;;;12.00;89.50;;;;;;5012889;28;20026;-71
2022/03/10 12:51:57;;;;;;;20.03;13.73;;;11.70;92.30;;;;;;5012568;28;20048;-71
2022/03/10 12:54:25;;;;;;;19.80;14.90;;;12.10;92.30;;;;;;5012208;28;20030;-71
2022/03/10 12:56:51;;;;;;;21.47;14.87;;;;;;;;;;5012470;28;20029;-71
2022/03/10 12:59:28;;;;;;;23.23;14.83;;;11.70;92.00;;;;;;5012785;28;20076;-71
2022/03/10 13:01:53;;;;;;;19.97;13.20;;;11.70;91.80;;;;;;4993313;28;20037;-71
2022/03/10 13:04:20;;;;;;;19.80;14.33;;;11.50;91.60;;;;;;5005993;28;20030;-71
2022/03/10 13:06:47;;;;;;;22.27;13.73;;;11.60;91.50;;;;;;5010991;28;20521;-71